TimeCST,TemperatureF,Dew PointF,Humidity,Sea Level PressureIn,VisibilityMPH,Wind Direction,Wind SpeedMPH,Gust SpeedMPH,PrecipitationIn,Events,Conditions,WindDirDegrees,DateUTC
12:55 AM,28.6,26.6,92,30.37,10.0,Calm,Calm,-,N/A,,Clear,0,2012-12-31 06:55:00
1:55 AM,27.7,25.5,92,30.37,10.0,Calm,Calm,-,N/A,,Clear,0,2012-12-31 07:55:00
2:55 AM,28.2,25.2,88,30.36,10.0,Calm,Calm,-,N/A,,Clear,0,2012-12-31 08:55:00
3:55 AM,28.4,25.5,89,30.34,10.0,Calm,Calm,-,N/A,,Clear,0,2012-12-31 09:55:00
4:55 AM,29.8,26.2,86,30.34,10.0,North,3.5,-,N/A,,Clear,360,2012-12-31 10:55:00
5:55 AM,29.3,26.8,90,30.35,10.0,Calm,Calm,-,N/A,,Clear,0,2012-12-31 11:55:00
6:55 AM,29.8,26.6,88,30.34,10.0,Calm,Calm,-,N/A,,Clear,0,2012-12-31 12:55:00
7:55 AM,33.6,30.4,88,30.35,10.0,Calm,Calm,-,N/A,,Partly Cloudy,0,2012-12-31 13:55:00
7:59 AM,35.6,30.2,81,30.35,10.0,NNE,3.5,-,N/A,,Mostly Cloudy,20,2012-12-31 13:59:00
8:55 AM,41.7,35.1,77,30.36,10.0,NE,3.5,-,N/A,,Overcast,40,2012-12-31 14:55:00
9:32 AM,48.2,39.2,71,30.36,10.0,NNE,3.5,-,N/A,,Mostly Cloudy,20,2012-12-31 15:32:00
9:35 AM,48.2,39.2,71,30.36,10.0,NNE,4.6,-,N/A,,Mostly Cloudy,20,2012-12-31 15:35:00
9:55 AM,50.5,39.6,66,30.35,10.0,NE,5.8,-,N/A,,Mostly Cloudy,40,2012-12-31 15:55:00
9:57 AM,50.0,39.2,66,30.35,10.0,NNE,5.8,-,N/A,,Mostly Cloudy,30,2012-12-31 15:57:00
10:11 AM,51.8,41.0,67,30.35,10.0,NE,4.6,-,N/A,,Overcast,50,2012-12-31 16:11:00
10:13 AM,51.8,41.0,67,30.35,10.0,NE,4.6,-,N/A,,Overcast,40,2012-12-31 16:13:00
10:30 AM,53.6,41.0,62,30.35,10.0,NNE,4.6,-,N/A,,Overcast,20,2012-12-31 16:30:00
10:40 AM,53.6,41.0,62,30.35,10.0,Variable,4.6,-,N/A,,Overcast,0,2012-12-31 16:40:00
10:55 AM,54.3,42.3,64,30.35,10.0,NNE,5.8,-,N/A,,Overcast,30,2012-12-31 16:55:00
11:20 AM,57.2,44.6,63,30.32,10.0,ENE,6.9,-,N/A,,Mostly Cloudy,70,2012-12-31 17:20:00
11:55 AM,59.2,44.8,59,30.31,10.0,NE,5.8,-,N/A,,Mostly Cloudy,40,2012-12-31 17:55:00
12:49 PM,60.8,46.4,59,30.27,10.0,NE,4.6,-,N/A,,Mostly Cloudy,40,2012-12-31 18:49:00
12:55 PM,60.8,46.4,59,30.27,10.0,NNE,5.8,-,N/A,,Mostly Cloudy,20,2012-12-31 18:55:00
1:55 PM,60.6,47.8,63,30.23,10.0,ENE,4.6,-,N/A,,Overcast,60,2012-12-31 19:55:00
2:55 PM,59.9,49.1,67,30.22,10.0,ESE,4.6,-,N/A,,Overcast,110,2012-12-31 20:55:00
3:55 PM,60.3,50.2,69,30.22,10.0,East,3.5,-,N/A,,Mostly Cloudy,100,2012-12-31 21:55:00
4:55 PM,59.0,50.4,73,30.21,10.0,Calm,Calm,-,N/A,,Overcast,0,2012-12-31 22:55:00
5:55 PM,58.1,50.4,75,30.22,10.0,Calm,Calm,-,N/A,,Overcast,0,2012-12-31 23:55:00
6:55 PM,57.2,50.7,79,30.23,10.0,NNE,3.5,-,N/A,,Overcast,20,2013-01-01 00:55:00
7:31 PM,57.2,50.0,77,30.24,10.0,Calm,Calm,-,N/A,,Light Drizzle,0,2013-01-01 01:31:00
7:40 PM,57.2,51.8,82,30.24,10.0,NE,3.5,-,N/A,,Overcast,40,2013-01-01 01:40:00
7:49 PM,57.2,51.8,82,30.22,10.0,ESE,4.6,-,N/A,,Light Drizzle,110,2013-01-01 01:49:00
7:55 PM,56.3,51.1,83,30.22,10.0,East,4.6,-,0.00,,Light Drizzle,90,2013-01-01 01:55:00
8:00 PM,57.2,51.8,82,30.21,10.0,East,5.8,-,N/A,,Mostly Cloudy,100,2013-01-01 02:00:00
8:55 PM,56.5,50.5,80,30.19,10.0,East,6.9,-,0.00,,Mostly Cloudy,100,2013-01-01 02:55:00
9:12 PM,57.2,50.0,77,30.20,10.0,East,5.8,-,N/A,,Mostly Cloudy,100,2013-01-01 03:12:00
9:33 PM,57.2,51.8,82,30.19,10.0,ESE,4.6,-,N/A,,Mostly Cloudy,110,2013-01-01 03:33:00
9:36 PM,57.2,51.8,82,30.19,10.0,ESE,4.6,-,N/A,,Mostly Cloudy,110,2013-01-01 03:36:00
9:43 PM,57.2,51.8,82,30.19,10.0,ESE,4.6,-,N/A,,Mostly Cloudy,120,2013-01-01 03:43:00
9:54 PM,55.4,51.8,88,30.18,10.0,ESE,3.5,-,N/A,,Mostly Cloudy,120,2013-01-01 03:54:00
9:55 PM,55.9,50.9,83,30.19,10.0,ESE,3.5,-,N/A,,Mostly Cloudy,120,2013-01-01 03:55:00
10:55 PM,55.9,50.7,83,30.15,10.0,SE,10.4,-,N/A,,Scattered Clouds,130,2013-01-01 04:55:00
10:59 PM,55.4,50.0,82,30.14,10.0,SE,9.2,-,N/A,,Mostly Cloudy,140,2013-01-01 04:59:00
11:43 PM,57.2,51.8,82,30.14,10.0,SE,6.9,-,N/A,,Mostly Cloudy,140,2013-01-01 05:43:00
11:55 PM,56.8,52.0,84,30.13,10.0,SE,8.1,-,N/A,,Overcast,140,2013-01-01 05:55:00